EZY365G EGCC-EGAC
Flight info
| Callsign | EZY365G |
|---|---|
| Flight time | 0h 32m |
| Altitude | 20000 |
| Route | ASMIM L975 WAL M146 ERDUV Z198 MASOP M148 MAGEE |
| Aircraft | A320/M-SDE3FGHIRWY/LB1 |
Departure
| Time | 2026-04-21 19:53 |
|---|---|
| Airport | Manchester Airport (EGCC) |
Arrival
| Time | 2026-04-21 20:25 |
|---|---|
| Airport | George Best Belfast City Airport (EGAC) |
| Time | Latitude | Longitude | Altitude | Speed | Heading |
|---|---|---|---|---|---|
| 2026-04-21 19:29 | 53.36169 | -2.27701 | 255 ft | 0 kts | 15° |
| 2026-04-21 19:42 | 53.36155 | -2.27707 | 255 ft | 4 kts | 16° |
| 2026-04-21 19:43 | 53.36129 | -2.27719 | 255 ft | 4 kts | 15° |
| 2026-04-21 19:43 | 53.36103 | -2.27729 | 255 ft | 4 kts | 358° |
| 2026-04-21 19:43 | 53.36085 | -2.27721 | 255 ft | 2 kts | 287° |
| 2026-04-21 19:43 | 53.36084 | -2.27718 | 255 ft | 0 kts | 285° |
| 2026-04-21 19:46 | 53.36085 | -2.27720 | 255 ft | 2 kts | 284° |
| 2026-04-21 19:47 | 53.36091 | -2.27776 | 255 ft | 7 kts | 269° |
| 2026-04-21 19:47 | 53.36070 | -2.27834 | 255 ft | 5 kts | 233° |
| 2026-04-21 19:47 | 53.36033 | -2.27903 | 255 ft | 10 kts | 216° |
| 2026-04-21 19:47 | 53.35977 | -2.27880 | 255 ft | 8 kts | 148° |
| 2026-04-21 19:48 | 53.35906 | -2.27849 | 255 ft | 14 kts | 182° |
| 2026-04-21 19:48 | 53.35797 | -2.27865 | 250 ft | 17 kts | 185° |
| 2026-04-21 19:48 | 53.35694 | -2.27882 | 244 ft | 14 kts | 185° |
| 2026-04-21 19:48 | 53.35605 | -2.27947 | 239 ft | 15 kts | 225° |
| 2026-04-21 19:49 | 53.35530 | -2.28086 | 234 ft | 17 kts | 223° |
| 2026-04-21 19:49 | 53.35457 | -2.28136 | 237 ft | 7 kts | 200° |
| 2026-04-21 19:49 | 53.35366 | -2.28174 | 235 ft | 21 kts | 188° |
| 2026-04-21 19:49 | 53.35242 | -2.28278 | 232 ft | 18 kts | 223° |
| 2026-04-21 19:50 | 53.35165 | -2.28439 | 227 ft | 19 kts | 232° |
| 2026-04-21 19:50 | 53.35088 | -2.28598 | 229 ft | 15 kts | 231° |
| 2026-04-21 19:50 | 53.35022 | -2.28727 | 227 ft | 15 kts | 227° |
| 2026-04-21 19:50 | 53.34951 | -2.28853 | 227 ft | 15 kts | 226° |
| 2026-04-21 19:51 | 53.34878 | -2.28980 | 221 ft | 17 kts | 226° |
| 2026-04-21 19:51 | 53.34796 | -2.29132 | 224 ft | 15 kts | 229° |
| 2026-04-21 19:51 | 53.34729 | -2.29264 | 211 ft | 16 kts | 220° |
| 2026-04-21 19:51 | 53.34638 | -2.29331 | 212 ft | 13 kts | 191° |
| 2026-04-21 19:52 | 53.34545 | -2.29257 | 213 ft | 16 kts | 109° |
| 2026-04-21 19:52 | 53.34589 | -2.29119 | 219 ft | 12 kts | 48° |
| 2026-04-21 19:52 | 53.34681 | -2.28931 | 220 ft | 47 kts | 52° |
| 2026-04-21 19:52 | 53.35026 | -2.28211 | 232 ft | 111 kts | 51° |
| 2026-04-21 19:53 | 53.35619 | -2.26981 | 368 ft | 147 kts | 51° |
| 2026-04-21 19:53 | 53.36183 | -2.25769 | 1230 ft | 128 kts | 55° |
| 2026-04-21 19:53 | 53.36746 | -2.24478 | 1568 ft | 150 kts | 56° |
| 2026-04-21 19:53 | 53.37453 | -2.23006 | 1968 ft | 173 kts | 56° |
| 2026-04-21 19:54 | 53.38311 | -2.21386 | 2418 ft | 200 kts | 44° |
| 2026-04-21 19:54 | 53.39679 | -2.20329 | 2895 ft | 238 kts | 16° |
| 2026-04-21 19:54 | 53.41418 | -2.20682 | 3637 ft | 268 kts | 345° |
| 2026-04-21 19:54 | 53.42966 | -2.22511 | 4546 ft | 285 kts | 316° |
| 2026-04-21 19:55 | 53.44230 | -2.25113 | 5500 ft | 289 kts | 310° |
| 2026-04-21 19:55 | 53.45465 | -2.27801 | 6449 ft | 291 kts | 310° |
| 2026-04-21 19:55 | 53.46722 | -2.30497 | 7366 ft | 294 kts | 310° |
| 2026-04-21 19:55 | 53.47998 | -2.33217 | 8254 ft | 297 kts | 310° |
| 2026-04-21 19:56 | 53.49272 | -2.35930 | 9151 ft | 299 kts | 310° |
| 2026-04-21 19:56 | 53.50567 | -2.38684 | 10067 ft | 302 kts | 310° |
| 2026-04-21 19:56 | 53.51804 | -2.41539 | 10719 ft | 314 kts | 299° |
| 2026-04-21 19:56 | 53.52504 | -2.45169 | 10969 ft | 339 kts | 281° |
| 2026-04-21 19:57 | 53.52957 | -2.49191 | 11193 ft | 362 kts | 281° |
| 2026-04-21 19:57 | 53.53414 | -2.53410 | 11674 ft | 373 kts | 281° |
| 2026-04-21 19:57 | 53.53879 | -2.57732 | 12437 ft | 376 kts | 281° |
| 2026-04-21 19:57 | 53.54352 | -2.62094 | 13175 ft | 380 kts | 281° |
| 2026-04-21 19:58 | 53.54827 | -2.66455 | 13934 ft | 383 kts | 281° |
| 2026-04-21 19:58 | 53.55312 | -2.70887 | 14621 ft | 386 kts | 281° |
| 2026-04-21 19:58 | 53.55804 | -2.75364 | 15222 ft | 391 kts | 281° |
| 2026-04-21 19:58 | 53.56293 | -2.79826 | 15896 ft | 393 kts | 280° |
| 2026-04-21 19:59 | 53.56792 | -2.84395 | 16520 ft | 397 kts | 280° |
| 2026-04-21 19:59 | 53.57294 | -2.89006 | 17095 ft | 402 kts | 280° |
| 2026-04-21 19:59 | 53.57795 | -2.93636 | 17825 ft | 402 kts | 279° |
| 2026-04-21 19:59 | 53.58290 | -2.98221 | 18471 ft | 405 kts | 279° |
| 2026-04-21 20:00 | 53.58793 | -3.02888 | 19177 ft | 404 kts | 280° |
| 2026-04-21 20:00 | 53.59295 | -3.07567 | 19826 ft | 404 kts | 280° |
| 2026-04-21 20:00 | 53.59787 | -3.12166 | 20258 ft | 402 kts | 281° |
| 2026-04-21 20:00 | 53.60277 | -3.16778 | 20383 ft | 400 kts | 281° |
| 2026-04-21 20:01 | 53.60776 | -3.21487 | 20411 ft | 415 kts | 281° |
| 2026-04-21 20:01 | 53.61321 | -3.26326 | 20405 ft | 421 kts | 285° |
| 2026-04-21 20:01 | 53.62407 | -3.30834 | 20405 ft | 422 kts | 301° |
| 2026-04-21 20:01 | 53.64192 | -3.34777 | 20406 ft | 423 kts | 311° |
| 2026-04-21 20:02 | 53.66104 | -3.38458 | 20402 ft | 421 kts | 311° |
| 2026-04-21 20:02 | 53.68041 | -3.42165 | 20402 ft | 421 kts | 311° |
| 2026-04-21 20:02 | 53.69993 | -3.45896 | 20405 ft | 424 kts | 311° |
| 2026-04-21 20:02 | 53.71952 | -3.49654 | 20405 ft | 424 kts | 311° |
| 2026-04-21 20:03 | 53.73871 | -3.53358 | 20407 ft | 425 kts | 311° |
| 2026-04-21 20:03 | 53.75820 | -3.57136 | 20406 ft | 424 kts | 311° |
| 2026-04-21 20:03 | 53.77762 | -3.60905 | 20407 ft | 424 kts | 311° |
| 2026-04-21 20:03 | 53.79702 | -3.64677 | 20405 ft | 424 kts | 311° |
| 2026-04-21 20:04 | 53.81620 | -3.68409 | 20404 ft | 424 kts | 311° |
| 2026-04-21 20:04 | 53.83561 | -3.72192 | 20409 ft | 424 kts | 311° |
| 2026-04-21 20:04 | 53.85499 | -3.75978 | 20411 ft | 424 kts | 310° |
| 2026-04-21 20:04 | 53.87407 | -3.79710 | 20407 ft | 424 kts | 311° |
| 2026-04-21 20:05 | 53.89326 | -3.83462 | 20411 ft | 424 kts | 311° |
| 2026-04-21 20:05 | 53.91269 | -3.87258 | 20408 ft | 424 kts | 311° |
| 2026-04-21 20:05 | 53.93202 | -3.91042 | 20412 ft | 424 kts | 310° |
| 2026-04-21 20:05 | 53.95115 | -3.94802 | 20408 ft | 425 kts | 311° |
| 2026-04-21 20:06 | 53.97053 | -3.98621 | 20402 ft | 425 kts | 310° |
| 2026-04-21 20:06 | 53.98986 | -4.02434 | 20399 ft | 425 kts | 310° |
| 2026-04-21 20:06 | 54.00903 | -4.06219 | 20397 ft | 426 kts | 310° |
| 2026-04-21 20:06 | 54.02834 | -4.10040 | 20400 ft | 426 kts | 310° |
| 2026-04-21 20:07 | 54.04767 | -4.13875 | 20401 ft | 426 kts | 310° |
| 2026-04-21 20:07 | 54.06702 | -4.17711 | 20402 ft | 426 kts | 310° |
| 2026-04-21 20:07 | 54.08635 | -4.21545 | 20406 ft | 426 kts | 310° |
| 2026-04-21 20:07 | 54.10550 | -4.25353 | 20406 ft | 426 kts | 310° |
| 2026-04-21 20:08 | 54.12480 | -4.29202 | 20408 ft | 426 kts | 310° |
| 2026-04-21 20:08 | 54.14403 | -4.33044 | 20412 ft | 425 kts | 310° |
| 2026-04-21 20:08 | 54.16223 | -4.36944 | 20415 ft | 424 kts | 305° |
| 2026-04-21 20:08 | 54.17923 | -4.41067 | 20409 ft | 425 kts | 305° |
| 2026-04-21 20:09 | 54.19628 | -4.45205 | 20398 ft | 426 kts | 305° |
| 2026-04-21 20:09 | 54.21562 | -4.49920 | 20389 ft | 426 kts | 305° |
| 2026-04-21 20:09 | 54.23267 | -4.54092 | 20387 ft | 427 kts | 305° |
| 2026-04-21 20:09 | 54.24971 | -4.58261 | 20380 ft | 422 kts | 305° |
| 2026-04-21 20:10 | 54.26617 | -4.62285 | 19924 ft | 414 kts | 305° |
| 2026-04-21 20:10 | 54.28263 | -4.66325 | 19243 ft | 413 kts | 304° |
| 2026-04-21 20:10 | 54.29913 | -4.70381 | 18679 ft | 416 kts | 304° |
| 2026-04-21 20:10 | 54.31574 | -4.74471 | 18204 ft | 418 kts | 304° |
| 2026-04-21 20:11 | 54.33229 | -4.78557 | 17740 ft | 416 kts | 304° |
| 2026-04-21 20:11 | 54.34855 | -4.82578 | 17307 ft | 414 kts | 305° |
| 2026-04-21 20:11 | 54.36494 | -4.86637 | 17028 ft | 412 kts | 305° |
| 2026-04-21 20:11 | 54.38125 | -4.90686 | 16761 ft | 411 kts | 305° |
| 2026-04-21 20:12 | 54.39738 | -4.94699 | 16206 ft | 408 kts | 305° |
| 2026-04-21 20:12 | 54.41349 | -4.98715 | 15545 ft | 408 kts | 305° |
| 2026-04-21 20:12 | 54.42346 | -5.01462 | 15171 ft | 406 kts | 298° |
| 2026-04-21 20:12 | 54.43640 | -5.07471 | 14439 ft | 403 kts | 282° |
| 2026-04-21 20:13 | 54.43974 | -5.12220 | 13815 ft | 400 kts | 270° |
| 2026-04-21 20:13 | 54.43944 | -5.16953 | 13131 ft | 399 kts | 268° |
| 2026-04-21 20:13 | 54.43900 | -5.21715 | 12446 ft | 397 kts | 268° |
| 2026-04-21 20:13 | 54.43855 | -5.26462 | 11778 ft | 395 kts | 268° |
| 2026-04-21 20:14 | 54.43810 | -5.31109 | 11124 ft | 392 kts | 268° |
| 2026-04-21 20:14 | 54.43762 | -5.35787 | 10491 ft | 389 kts | 268° |
| 2026-04-21 20:14 | 54.43713 | -5.40418 | 9814 ft | 386 kts | 268° |
| 2026-04-21 20:14 | 54.43664 | -5.45018 | 9119 ft | 382 kts | 268° |
| 2026-04-21 20:15 | 54.43615 | -5.49489 | 8169 ft | 379 kts | 268° |
| 2026-04-21 20:15 | 54.43563 | -5.54011 | 7776 ft | 375 kts | 268° |
| 2026-04-21 20:15 | 54.43228 | -5.58421 | 7126 ft | 368 kts | 250° |
| 2026-04-21 20:15 | 54.42201 | -5.62336 | 6465 ft | 362 kts | 239° |
| 2026-04-21 20:16 | 54.41026 | -5.66161 | 5802 ft | 359 kts | 239° |
| 2026-04-21 20:16 | 54.40267 | -5.68626 | 5620 ft | 342 kts | 239° |
| 2026-04-21 20:16 | 54.38885 | -5.73165 | 5366 ft | 307 kts | 239° |
| 2026-04-21 20:16 | 54.37926 | -5.76371 | 5154 ft | 294 kts | 239° |
| 2026-04-21 20:17 | 54.37319 | -5.78409 | 5010 ft | 284 kts | 239° |
| 2026-04-21 20:17 | 54.36133 | -5.82407 | 4659 ft | 282 kts | 239° |
| 2026-04-21 20:17 | 54.35377 | -5.85527 | 4361 ft | 285 kts | 250° |
| 2026-04-21 20:17 | 54.35143 | -5.87752 | 4219 ft | 288 kts | 268° |
| 2026-04-21 20:18 | 54.35481 | -5.91133 | 4015 ft | 288 kts | 287° |
| 2026-04-21 20:18 | 54.36098 | -5.94365 | 3920 ft | 275 kts | 291° |
| 2026-04-21 20:18 | 54.36852 | -5.97249 | 3938 ft | 256 kts | 298° |
| 2026-04-21 20:18 | 54.37728 | -5.99804 | 3752 ft | 248 kts | 307° |
| 2026-04-21 20:19 | 54.38714 | -6.02212 | 3569 ft | 244 kts | 310° |
| 2026-04-21 20:19 | 54.39855 | -6.04346 | 3389 ft | 240 kts | 321° |
| 2026-04-21 20:19 | 54.41131 | -6.06099 | 3207 ft | 233 kts | 336° |
| 2026-04-21 20:19 | 54.42599 | -6.07053 | 3053 ft | 220 kts | 358° |
| 2026-04-21 20:20 | 54.44083 | -6.07162 | 2996 ft | 205 kts | 16° |
| 2026-04-21 20:20 | 54.45371 | -6.06603 | 2998 ft | 184 kts | 33° |
| 2026-04-21 20:20 | 54.46440 | -6.05540 | 3045 ft | 173 kts | 43° |
| 2026-04-21 20:20 | 54.47430 | -6.04368 | 3018 ft | 171 kts | 43° |
| 2026-04-21 20:21 | 54.48396 | -6.03225 | 3001 ft | 170 kts | 43° |
| 2026-04-21 20:21 | 54.49374 | -6.02065 | 2877 ft | 170 kts | 43° |
| 2026-04-21 20:21 | 54.50325 | -6.00941 | 2680 ft | 160 kts | 44° |
| 2026-04-21 20:21 | 54.51210 | -5.99894 | 2487 ft | 147 kts | 45° |
| 2026-04-21 20:22 | 54.52004 | -5.98953 | 2297 ft | 135 kts | 46° |
| 2026-04-21 20:22 | 54.53486 | -5.97187 | 1950 ft | 127 kts | 46° |
| 2026-04-21 20:22 | 54.54213 | -5.96318 | 1766 ft | 127 kts | 45° |
| 2026-04-21 20:23 | 54.54931 | -5.95462 | 1595 ft | 127 kts | 44° |
| 2026-04-21 20:23 | 54.55656 | -5.94596 | 1416 ft | 127 kts | 43° |
| 2026-04-21 20:23 | 54.56383 | -5.93706 | 1226 ft | 128 kts | 43° |
| 2026-04-21 20:23 | 54.57100 | -5.92831 | 1056 ft | 127 kts | 40° |
| 2026-04-21 20:24 | 54.57839 | -5.91975 | 838 ft | 125 kts | 38° |
| 2026-04-21 20:24 | 54.58551 | -5.91180 | 695 ft | 121 kts | 39° |
| 2026-04-21 20:24 | 54.59254 | -5.90326 | 534 ft | 124 kts | 40° |
| 2026-04-21 20:24 | 54.59962 | -5.89466 | 355 ft | 125 kts | 41° |
| 2026-04-21 20:25 | 54.60680 | -5.88604 | 205 ft | 123 kts | 40° |
| 2026-04-21 20:25 | 54.61374 | -5.87777 | 35 ft | 122 kts | 39° |
| 2026-04-21 20:25 | 54.61917 | -5.87119 | 21 ft | 55 kts | 33° |
| 2026-04-21 20:25 | 54.62162 | -5.86834 | 20 ft | 37 kts | 34° |
| 2026-04-21 20:26 | 54.62325 | -5.86643 | 22 ft | 21 kts | 31° |
| 2026-04-21 20:26 | 54.62431 | -5.86544 | 22 ft | 13 kts | 3° |
| 2026-04-21 20:26 | 54.62479 | -5.86471 | 21 ft | 11 kts | 122° |
| 2026-04-21 20:26 | 54.62416 | -5.86531 | 23 ft | 20 kts | 220° |
| 2026-04-21 20:27 | 54.62268 | -5.86693 | 22 ft | 27 kts | 213° |
| 2026-04-21 20:27 | 54.62116 | -5.86880 | 20 ft | 27 kts | 214° |
| 2026-04-21 20:27 | 54.61968 | -5.87065 | 20 ft | 26 kts | 214° |
| 2026-04-21 20:27 | 54.61842 | -5.87157 | 21 ft | 16 kts | 156° |
| 2026-04-21 20:28 | 54.61771 | -5.87022 | 21 ft | 14 kts | 129° |
| 2026-04-21 20:28 | 54.61690 | -5.87030 | 21 ft | 13 kts | 216° |
| 2026-04-21 20:28 | 54.61620 | -5.87118 | 21 ft | 12 kts | 214° |
| 2026-04-21 20:28 | 54.61556 | -5.87196 | 21 ft | 11 kts | 216° |
| 2026-04-21 20:29 | 54.61516 | -5.87227 | 21 ft | 5 kts | 176° |
| 2026-04-21 20:29 | 54.61490 | -5.87208 | 21 ft | 4 kts | 158° |
| 2026-04-21 20:29 | 54.61476 | -5.87199 | 22 ft | 2 kts | 158° |
| 2026-04-21 20:29 | 54.61471 | -5.87195 | 23 ft | 0 kts | 158° |
| 2026-04-21 20:32 | 54.55187 | -5.95157 | 1530 ft | 0 kts | 44° |
| 2026-04-21 20:32 | 54.55215 | -5.95125 | 48 ft | 0 kts | 52° |